Georgetown, IN (47122)

5:28 AM EDT on August 25, 2016 (GMT -0400)
Floyd County Road Department | | Change Station

Elev 726 ft 38.29 °N, 85.93 °W | Updated 3 minutes ago

Partly Cloudy
Partly Cloudy
76.5 °F
Feels Like 77 °F
N
2.0
Wind Variable Wind from SSW
Gusts 2.0 mph

Today
High -- | Low -- °F
--% Chance of Precip.
Yesterday
High -- | Low -- °F
Precip. -- in
Pressure 30.07 in
Visibility 10.0 miles
Clouds Few 25000 ft
Heat Index 77 °F
Dew Point 74 °F
Humidity 92%
Rainfall 0.00 in
Snow Depth Not available.
7:07 AM 8:23 PM
Waning Gibbous, 47% visible
METAR KSDF 250856Z 23006KT 10SM FEW250 27/23 A3009 RMK AO2 SLP182 T02670228 50005 $
Pressure 30.07 in
Visibility 10.0 miles
Clouds Few 25000 ft
Heat Index 77 °F
Dew Point 74 °F
Humidity 92%
Rainfall 0.00 in
Snow Depth Not available.
7:07 AM 8:23 PM
Waning Gibbous, 47% visible
METAR KSDF 250856Z 23006KT 10SM FEW250 27/23 A3009 RMK AO2 SLP182 T02670228 50005 $

10-Day Weather Forecast

Almanac

Astronomy

Aug. 25, 2016 Rise Set
Actual Time
Civil Twilight
Nautical Twilight
Astronomical Twilight
Moon
Length of Visible Light
Length of Day
Tomorrow will be .
, % of the Moon is Illuminated

Today's Extremes

State Highs State Lows

Community

WunderPhotos

Upload Photos

1,934,814 photos uploaded!

WunderBlog® & News

Nearby

Air Quality

  Air Quality AQ Index Pollutant
Not available.

Snow Depth

Station Depth Elevation

Earthquake Activity

City Distance Mag. Time & Date
Minimum magnitude displayed is 2.5.

Coastal Water Temperatures

Place Temperature

Stations

Nearby Weather Stations

Station Location Temp. Windchill Dew Point Humidity Wind Precip. Elev Updated Type
                   

Watches & Warnings

There are currently no watches in effect.